Time;durP1;ratioP1;P1;durP2;ratioP2;P2;SDS_P1;SDS_P2;PMS_P1;PMS_P2;Temp;Humidity;BMP_temperature;BMP_pressure;BME280_temperature;BME280_humidity;BME280_pressure;Samples;Min_cycle;Max_cycle;Signal;HPM_P1;HPM_P2
2023/04/06 00:00:16;;;;;;;;;;;;;;;15.04;59.88;101500.44;1045422;28;704;-67
2023/04/06 00:01:06;;;;;;;;;;;;;;;15.04;59.66;101496.91;1044137;28;1189;-67
2023/04/06 00:01:57;;;;;;;;;;;;;;;15.06;59.48;101495.78;1045618;28;630;-66
2023/04/06 00:02:47;;;;;;;;;;;;;;;15.04;59.56;101497.75;1045190;28;1118;-66
2023/04/06 00:03:38;;;;;;;;;;;;;;;15.02;60.10;101494.31;1041934;28;637;-66
2023/04/06 00:04:28;;;;;;;;;;;;;;;15.03;59.92;101489.81;1042723;28;1135;-66
2023/04/06 00:05:19;;;;;;;;;;;;;;;15.03;59.66;101495.19;1045870;28;660;-66
2023/04/06 00:06:10;;;;;;;;;;;;;;;15.02;59.67;101491.63;1045270;28;1354;-66
2023/04/06 00:07:00;;;;;;;;;;;;;;;15.01;59.95;101486.38;1044870;28;1457;-66
2023/04/06 00:07:52;;;;;;;;;;;;;;;15.03;59.53;101481.75;1042239;28;698;-67
2023/04/06 00:08:44;;;;;;;;;;;;;;;15.04;59.87;101494.22;1044080;28;1119;-66
2023/04/06 00:09:34;;;;;;;;;;;;;;;15.00;59.62;101495.41;1045636;28;1292;-66
2023/04/06 00:10:25;;;;;;;;;;;;;;;14.99;59.79;101489.16;1043826;28;1162;-67
2023/04/06 00:11:16;;;;;;;;;;;;;;;15.03;59.89;101482.63;1044335;28;884;-67
2023/04/06 00:12:07;;;;;;;;;;;;;;;14.99;59.97;101480.25;1043496;28;1910;-67
2023/04/06 00:12:57;;;;;;;;;;;;;;;15.00;59.78;101490.88;1041945;28;1109;-66
2023/04/06 00:13:47;;;;;;;;;;;;;;;15.01;59.56;101487.25;1044012;28;1174;-67
2023/04/06 00:14:38;;;;;;;;;;;;;;;15.00;60.11;101484.66;1045332;28;629;-67
2023/04/06 00:15:28;;;;;;;;;;;;;;;15.01;60.08;101481.00;1043409;28;1119;-66
2023/04/06 00:16:19;;;;;;;;;;;;;;;15.00;59.83;101484.66;1045523;28;633;-67
2023/04/06 00:17:09;;;;;;;;;;;;;;;15.00;59.87;101476.63;1039237;28;1242;-67
2023/04/06 00:18:00;;;;;;;;;;;;;;;15.01;59.64;101483.69;1044938;28;599;-66
2023/04/06 00:18:50;;;;;;;;;;;;;;;15.02;60.09;101485.41;1042787;28;1525;-67
2023/04/06 00:19:41;;;;;;;;;;;;;;;15.02;59.77;101475.53;1045141;28;724;-66
2023/04/06 00:20:31;;;;;;;;;;;;;;;15.02;59.59;101478.22;1045198;28;1170;-66
2023/04/06 00:21:22;;;;;;;;;;;;;;;15.02;59.89;101483.59;1044857;28;712;-66
2023/04/06 00:22:12;;;;;;;;;;;;;;;15.04;59.68;101486.16;1045338;28;951;-66
2023/04/06 00:23:03;;;;;;;;;;;;;;;15.02;59.99;101474.69;1045330;28;709;-66
2023/04/06 00:23:53;;;;;;;;;;;;;;;15.03;59.70;101476.38;1043379;28;1047;-67
2023/04/06 00:24:44;;;;;;;;;;;;;;;15.02;59.72;101472.84;1044670;28;1052;-67
2023/04/06 00:25:34;;;;;;;;;;;;;;;14.97;59.83;101479.50;1045340;28;742;-66
2023/04/06 00:26:25;;;;;;;;;;;;;;;14.97;59.74;101472.31;1043650;28;1190;-66
2023/04/06 00:27:15;;;;;;;;;;;;;;;14.93;59.99;101476.19;1044565;28;709;-66
2023/04/06 00:28:06;;;;;;;;;;;;;;;14.85;60.23;101473.22;1043571;28;1178;-66
2023/04/06 00:28:56;;;;;;;;;;;;;;;14.89;60.08;101477.38;1042699;28;1469;-67
2023/04/06 00:29:46;;;;;;;;;;;;;;;14.88;60.44;101476.53;1041074;28;1150;-66
2023/04/06 00:30:37;;;;;;;;;;;;;;;14.90;59.78;101473.72;1044839;28;630;-66
2023/04/06 00:31:27;;;;;;;;;;;;;;;14.92;59.91;101464.59;1039953;28;673;-67
2023/04/06 00:32:18;;;;;;;;;;;;;;;14.90;59.77;101474.59;1044088;28;1969;-67
2023/04/06 00:33:08;;;;;;;;;;;;;;;14.90;59.83;101471.03;1045429;28;627;-67
2023/04/06 00:33:58;;;;;;;;;;;;;;;14.92;60.08;101464.59;1041904;28;641;-67
2023/04/06 00:34:49;;;;;;;;;;;;;;;14.85;60.41;101474.09;1040241;28;637;-67
2023/04/06 00:35:40;;;;;;;;;;;;;;;14.85;59.83;101468.72;1043966;28;1015;-66
2023/04/06 00:36:30;;;;;;;;;;;;;;;14.89;60.16;101464.81;1044755;28;669;-66
2023/04/06 00:37:21;;;;;;;;;;;;;;;14.84;60.33;101464.31;1044562;28;1138;-67
2023/04/06 00:38:11;;;;;;;;;;;;;;;14.87;59.97;101468.56;1045220;28;650;-67
2023/04/06 00:39:02;;;;;;;;;;;;;;;14.90;60.30;101468.34;1044782;28;626;-67
2023/04/06 00:39:52;;;;;;;;;;;;;;;14.90;60.01;101465.69;1043170;28;681;-67
2023/04/06 00:40:44;;;;;;;;;;;;;;;14.88;60.14;101467.59;1044678;28;720;-67
2023/04/06 00:41:34;;;;;;;;;;;;;;;14.88;60.18;101465.78;1043498;28;645;-66
2023/04/06 00:42:27;;;;;;;;;;;;;;;14.87;59.94;101464.06;1044565;28;1122;-67
2023/04/06 00:43:18;;;;;;;;;;;;;;;14.85;60.03;101462.50;1045525;28;1360;-65
2023/04/06 00:44:08;;;;;;;;;;;;;;;14.88;60.31;101454.19;1039693;28;711;-65
2023/04/06 00:44:59;;;;;;;;;;;;;;;14.85;60.33;101452.63;1044204;28;638;-65
2023/04/06 00:45:49;;;;;;;;;;;;;;;14.87;60.23;101464.06;1039967;28;669;-65
2023/04/06 00:46:40;;;;;;;;;;;;;;;14.83;59.92;101456.38;1044067;28;1562;-68
2023/04/06 00:47:30;;;;;;;;;;;;;;;14.82;60.08;101455.53;1040335;28;650;-66
2023/04/06 00:48:21;;;;;;;;;;;;;;;14.86;60.04;101454.34;1041168;28;634;-66
2023/04/06 00:49:11;;;;;;;;;;;;;;;14.83;60.17;101445.66;1041041;28;649;-66
2023/04/06 00:50:02;;;;;;;;;;;;;;;14.79;60.48;101450.38;1043641;28;1040;-66
2023/04/06 00:50:52;;;;;;;;;;;;;;;14.80;60.31;101444.03;1041107;28;714;-66
2023/04/06 00:51:42;;;;;;;;;;;;;;;14.76;60.34;101436.31;1043316;28;1074;-66
2023/04/06 00:52:33;;;;;;;;;;;;;;;14.79;60.59;101442.31;1045201;28;1905;-67
2023/04/06 00:53:23;;;;;;;;;;;;;;;14.81;60.12;101434.16;1044706;28;1091;-66
2023/04/06 00:54:14;;;;;;;;;;;;;;;14.84;60.38;101442.00;1042878;28;709;-67
2023/04/06 00:55:05;;;;;;;;;;;;;;;14.84;60.33;101447.34;1040287;28;685;-66
2023/04/06 00:55:55;;;;;;;;;;;;;;;14.80;60.61;101432.44;1043222;28;681;-67
2023/04/06 00:56:46;;;;;;;;;;;;;;;14.80;60.07;101436.00;1043403;28;1066;-66
2023/04/06 00:57:36;;;;;;;;;;;;;;;14.83;59.97;101440.28;1045003;28;1411;-66
2023/04/06 00:58:27;;;;;;;;;;;;;;;14.81;60.78;101436.84;1045274;28;611;-66
2023/04/06 00:59:17;;;;;;;;;;;;;;;14.80;60.25;101436.00;1045104;28;883;-67
2023/04/06 01:00:08;;;;;;;;;;;;;;;14.79;60.40;101436.94;1040671;28;621;-67
2023/04/06 01:00:58;;;;;;;;;;;;;;;14.81;60.09;101436.84;1040208;28;697;-66
2023/04/06 01:01:48;;;;;;;;;;;;;;;14.79;60.10;101434.28;1045235;28;658;-66
2023/04/06 01:02:39;;;;;;;;;;;;;;;14.74;60.49;101441.78;1041016;28;1035;-66
2023/04/06 01:03:30;;;;;;;;;;;;;;;14.73;60.53;101437.41;1040012;28;618;-67
2023/04/06 01:04:22;;;;;;;;;;;;;;;14.73;60.22;101428.47;1041199;28;637;-66
2023/04/06 01:05:12;;;;;;;;;;;;;;;14.72;60.20;101434.81;1043319;28;1003;-66
2023/04/06 01:06:03;;;;;;;;;;;;;;;14.75;60.71;101422.03;1041216;28;682;-66
2023/04/06 01:06:53;;;;;;;;;;;;;;;14.76;60.46;101434.50;1041069;28;662;-67
2023/04/06 01:07:44;;;;;;;;;;;;;;;14.76;60.62;101425.59;1045222;28;626;-66
2023/04/06 01:08:34;;;;;;;;;;;;;;;14.70;60.46;101413.47;1045051;28;1139;-66
2023/04/06 01:09:25;;;;;;;;;;;;;;;14.71;60.59;101420.53;1043553;28;583;-66
2023/04/06 01:10:15;;;;;;;;;;;;;;;14.70;60.50;101424.19;1042793;28;653;-67
2023/04/06 01:11:05;;;;;;;;;;;;;;;14.69;60.78;101418.97;1044118;28;686;-67
2023/04/06 01:11:56;;;;;;;;;;;;;;;14.71;60.39;101415.19;1043943;28;1485;-66
2023/04/06 01:12:47;;;;;;;;;;;;;;;14.71;60.31;101415.19;1043465;28;1458;-66
2023/04/06 01:13:37;;;;;;;;;;;;;;;14.73;60.53;101412.38;1042746;28;1279;-66
2023/04/06 01:14:28;;;;;;;;;;;;;;;14.73;60.43;101418.59;1040551;28;677;-67
2023/04/06 01:15:18;;;;;;;;;;;;;;;14.68;60.54;101404.69;1040724;28;671;-66
2023/04/06 01:16:09;;;;;;;;;;;;;;;14.65;60.50;101410.28;1040392;28;1119;-66
2023/04/06 01:17:00;;;;;;;;;;;;;;;14.64;60.34;101413.94;1044720;28;630;-67
2023/04/06 01:17:50;;;;;;;;;;;;;;;14.63;60.38;101408.69;1040575;28;689;-66
2023/04/06 01:18:42;;;;;;;;;;;;;;;14.62;60.90;101404.28;1041950;28;1027;-67
2023/04/06 01:19:32;;;;;;;;;;;;;;;14.65;60.77;101410.28;1044706;28;876;-67
2023/04/06 01:20:22;;;;;;;;;;;;;;;14.71;60.24;101414.31;1041614;28;1059;-67
2023/04/06 01:21:15;;;;;;;;;;;;;;;14.71;60.62;101403.59;1040660;28;631;-67
2023/04/06 01:22:05;;;;;;;;;;;;;;;14.72;60.52;101411.53;1040493;28;689;-67
2023/04/06 01:22:56;;;;;;;;;;;;;;;14.73;60.07;101407.88;1041180;28;678;-66
2023/04/06 01:23:46;;;;;;;;;;;;;;;14.74;60.03;101409.59;1040547;28;661;-66
2023/04/06 01:24:37;;;;;;;;;;;;;;;14.75;60.32;101405.94;1041324;28;687;-66
2023/04/06 01:25:27;;;;;;;;;;;;;;;14.74;60.41;101408.75;1044538;28;1071;-66
2023/04/06 01:26:18;;;;;;;;;;;;;;;14.75;60.05;101405.09;1045146;28;1295;-67
2023/04/06 01:27:08;;;;;;;;;;;;;;;14.73;59.90;101407.88;1044501;28;619;-67
2023/04/06 01:27:58;;;;;;;;;;;;;;;14.76;59.99;101407.66;1047068;28;657;-66
2023/04/06 01:28:49;;;;;;;;;;;;;;;14.71;60.24;101401.75;1048052;28;646;-66
2023/04/06 01:29:43;;;;;;;;;;;;;;;14.67;60.60;101408.34;1043065;28;705;-66
2023/04/06 01:30:33;;;;;;;;;;;;;;;14.68;60.14;101401.16;1045125;28;1118;-66
2023/04/06 01:31:23;;;;;;;;;;;;;;;14.69;60.44;101403.69;1040433;28;703;-66
2023/04/06 01:32:14;;;;;;;;;;;;;;;14.72;59.91;101408.84;1041587;28;1886;-66
2023/04/06 01:33:04;;;;;;;;;;;;;;;14.71;60.50;101401.75;1041687;28;626;-67
2023/04/06 01:33:55;;;;;;;;;;;;;;;14.67;60.12;101397.63;1041570;28;1469;-67
2023/04/06 01:34:45;;;;;;;;;;;;;;;14.69;60.50;101398.34;1041720;28;694;-67
2023/04/06 01:35:36;;;;;;;;;;;;;;;14.72;60.44;101397.25;1045142;28;660;-66
2023/04/06 01:36:26;;;;;;;;;;;;;;;14.67;60.11;101402.13;1044130;28;665;-67
2023/04/06 01:37:17;;;;;;;;;;;;;;;14.70;59.97;101393.81;1043341;28;1262;-66
2023/04/06 01:38:07;;;;;;;;;;;;;;;14.69;60.17;101398.34;1044814;28;648;-66
2023/04/06 01:38:58;;;;;;;;;;;;;;;14.70;59.99;101392.00;1044422;28;1217;-66
2023/04/06 01:39:48;;;;;;;;;;;;;;;14.69;59.94;101394.81;1044644;28;658;-66
2023/04/06 01:40:39;;;;;;;;;;;;;;;14.71;60.39;101392.84;1044178;28;1249;-66
2023/04/06 01:41:29;;;;;;;;;;;;;;;14.74;60.14;101396.19;1044309;28;733;-67
2023/04/06 01:42:20;;;;;;;;;;;;;;;14.68;60.02;101393.13;1042917;28;1077;-67
2023/04/06 01:43:10;;;;;;;;;;;;;;;14.66;60.06;101385.19;1045537;28;626;-66
2023/04/06 01:44:00;;;;;;;;;;;;;;;14.67;60.11;101388.72;1044215;28;650;-66
2023/04/06 01:44:51;;;;;;;;;;;;;;;14.67;60.55;101392.25;1045477;28;622;-67
2023/04/06 01:45:41;;;;;;;;;;;;;;;14.66;60.27;101387.00;1045264;28;1031;-66
2023/04/06 01:46:32;;;;;;;;;;;;;;;14.62;60.80;101391.72;1045986;28;637;-67
2023/04/06 01:47:22;;;;;;;;;;;;;;;14.59;60.50;101382.06;1045334;28;1086;-67
2023/04/06 01:48:13;;;;;;;;;;;;;;;14.62;60.16;101389.03;1045981;28;650;-66
2023/04/06 01:49:03;;;;;;;;;;;;;;;14.61;60.63;101387.31;1042151;28;1023;-68
2023/04/06 01:49:53;;;;;;;;;;;;;;;14.62;60.67;101385.50;1041962;28;734;-67
2023/04/06 01:50:44;;;;;;;;;;;;;;;14.65;59.94;101377.25;1045903;28;1234;-67
2023/04/06 01:51:34;;;;;;;;;;;;;;;14.60;60.66;101380.25;1046010;28;520;-67
2023/04/06 01:52:25;;;;;;;;;;;;;;;14.61;60.24;101381.97;1042265;28;1941;-67
2023/04/06 01:53:16;;;;;;;;;;;;;;;14.62;60.17;101378.31;1041215;28;611;-67
2023/04/06 01:54:06;;;;;;;;;;;;;;;14.61;60.04;101376.59;1041414;28;776;-67
2023/04/06 01:54:57;;;;;;;;;;;;;;;14.59;60.48;101382.06;1041927;28;1477;-67
2023/04/06 01:55:47;;;;;;;;;;;;;;;14.59;60.65;101378.53;1044881;28;1512;-67
2023/04/06 01:56:37;;;;;;;;;;;;;;;14.59;60.57;101381.22;1041331;28;689;-67
2023/04/06 01:57:28;;;;;;;;;;;;;;;14.59;60.09;101378.53;1045956;28;622;-67
2023/04/06 01:58:18;;;;;;;;;;;;;;;14.63;59.99;101379.16;1045837;28;1126;-67
2023/04/06 01:59:09;;;;;;;;;;;;;;;14.61;60.56;101376.59;1044849;28;701;-67
2023/04/06 01:59:59;;;;;;;;;;;;;;;14.59;60.61;101374.03;1045528;28;698;-67
2023/04/06 02:00:50;;;;;;;;;;;;;;;14.60;60.12;101364.16;1040103;28;674;-68
2023/04/06 02:01:41;;;;;;;;;;;;;;;14.61;60.59;101376.59;1043274;28;637;-67
2023/04/06 02:02:31;;;;;;;;;;;;;;;14.61;60.70;101367.69;1046066;28;669;-67
2023/04/06 02:03:21;;;;;;;;;;;;;;;14.61;60.56;101368.56;1043292;28;729;-67
2023/04/06 02:04:13;;;;;;;;;;;;;;;14.58;60.24;101372.31;1045984;28;624;-67
2023/04/06 02:05:04;;;;;;;;;;;;;;;14.62;60.52;101369.41;1045312;28;1126;-67
2023/04/06 02:05:54;;;;;;;;;;;;;;;14.56;60.43;101363.50;1045269;28;670;-68
2023/04/06 02:06:45;;;;;;;;;;;;;;;14.57;60.19;101364.38;1042094;28;1199;-67
2023/04/06 02:07:36;;;;;;;;;;;;;;;14.58;59.96;101366.94;1040710;28;690;-68
2023/04/06 02:08:26;;;;;;;;;;;;;;;14.61;60.03;101365.88;1041796;28;1153;-68
2023/04/06 02:09:17;;;;;;;;;;;;;;;14.61;60.16;101363.19;1041189;28;1441;-68
2023/04/06 02:10:07;;;;;;;;;;;;;;;14.56;60.21;101358.16;1041649;28;1067;-68
2023/04/06 02:10:57;;;;;;;;;;;;;;;14.57;60.04;101365.22;1041789;28;693;-66
2023/04/06 02:11:48;;;;;;;;;;;;;;;14.59;60.65;101362.44;1041534;28;1023;-67
2023/04/06 02:12:38;;;;;;;;;;;;;;;14.59;60.19;101360.63;1041320;28;1961;-67
2023/04/06 02:13:29;;;;;;;;;;;;;;;14.60;59.87;101356.09;1041853;28;736;-67
2023/04/06 02:14:19;;;;;;;;;;;;;;;14.60;59.97;101353.44;1045168;28;1139;-66
2023/04/06 02:15:10;;;;;;;;;;;;;;;14.60;60.59;101364.16;1044564;28;1091;-66
2023/04/06 02:16:02;;;;;;;;;;;;;;;14.63;60.07;101355.88;1045367;28;688;-66
2023/04/06 02:16:52;;;;;;;;;;;;;;;14.61;60.39;101360.50;1040843;28;649;-66
2023/04/06 02:17:43;;;;;;;;;;;;;;;14.61;60.04;101354.28;1043352;28;697;-67
2023/04/06 02:18:33;;;;;;;;;;;;;;;14.56;60.21;101354.63;1041796;28;657;-66
2023/04/06 02:19:24;;;;;;;;;;;;;;;14.54;60.80;101359.22;1043859;28;948;-67
2023/04/06 02:20:14;;;;;;;;;;;;;;;14.55;60.57;101360.94;1045969;28;708;-67
2023/04/06 02:21:05;;;;;;;;;;;;;;;14.54;60.47;101349.34;1042406;28;712;-66
2023/04/06 02:21:55;;;;;;;;;;;;;;;14.55;60.80;101350.22;1041222;28;630;-66
2023/04/06 02:22:45;;;;;;;;;;;;;;;14.57;60.14;101346.47;1044272;28;656;-65
2023/04/06 02:23:36;;;;;;;;;;;;;;;14.59;60.62;101349.03;1043306;28;1259;-66
2023/04/06 02:24:26;;;;;;;;;;;;;;;14.58;60.46;101348.16;1044602;28;1023;-66
2023/04/06 02:25:17;;;;;;;;;;;;;;;14.55;60.02;101350.22;1045979;28;634;-66
2023/04/06 02:26:07;;;;;;;;;;;;;;;14.54;60.58;101343.13;1040700;28;1008;-66
2023/04/06 02:26:58;;;;;;;;;;;;;;;14.50;60.86;101339.00;1042245;28;1389;-66
2023/04/06 02:27:48;;;;;;;;;;;;;;;14.51;60.70;101348.75;1043980;28;1012;-66
2023/04/06 02:28:38;;;;;;;;;;;;;;;14.47;60.68;101345.44;1045839;28;646;-66
2023/04/06 02:29:29;;;;;;;;;;;;;;;14.50;60.77;101336.31;1041692;28;615;-66
2023/04/06 02:30:19;;;;;;;;;;;;;;;14.49;60.73;101348.00;1043216;28;1178;-66
2023/04/06 02:31:10;;;;;;;;;;;;;;;14.51;60.31;101341.53;1045281;28;626;-66
2023/04/06 02:32:01;;;;;;;;;;;;;;;14.50;60.34;101341.69;1042687;28;665;-66
2023/04/06 02:32:51;;;;;;;;;;;;;;;14.53;60.16;101346.78;1045157;28;1102;-66
2023/04/06 02:33:42;;;;;;;;;;;;;;;14.47;60.34;101342.75;1046146;28;654;-66
2023/04/06 02:34:32;;;;;;;;;;;;;;;14.48;60.52;101333.75;1045591;28;724;-66
2023/04/06 02:35:23;;;;;;;;;;;;;;;14.50;60.46;101339.00;1044905;28;721;-66
2023/04/06 02:36:13;;;;;;;;;;;;;;;14.53;60.69;101338.75;1045334;28;657;-66
2023/04/06 02:37:04;;;;;;;;;;;;;;;14.53;60.74;101344.09;1044871;28;737;-66
2023/04/06 02:37:54;;;;;;;;;;;;;;;14.47;60.64;101345.44;1043834;28;1192;-66
2023/04/06 02:38:45;;;;;;;;;;;;;;;14.50;60.20;101330.94;1040433;28;724;-66
2023/04/06 02:39:35;;;;;;;;;;;;;;;14.56;60.44;101335.84;1041375;28;646;-66
2023/04/06 02:40:26;;;;;;;;;;;;;;;14.55;60.49;101334.97;1044956;28;743;-66
2023/04/06 02:41:16;;;;;;;;;;;;;;;14.57;60.77;101337.56;1040512;28;634;-66
2023/04/06 02:42:08;;;;;;;;;;;;;;;14.56;60.21;101330.47;1040699;28;619;-66
2023/04/06 02:42:59;;;;;;;;;;;;;;;14.54;60.68;101335.09;1042305;28;1332;-67
2023/04/06 02:43:49;;;;;;;;;;;;;;;14.53;60.19;101336.06;1041169;28;1118;-66
2023/04/06 02:44:40;;;;;;;;;;;;;;;14.52;60.62;101334.34;1042374;28;632;-67
2023/04/06 02:45:30;;;;;;;;;;;;;;;14.51;60.32;101325.44;1044755;28;688;-66
2023/04/06 02:46:21;;;;;;;;;;;;;;;14.55;60.06;101328.75;1042996;28;641;-66
2023/04/06 02:47:11;;;;;;;;;;;;;;;14.52;60.88;101323.63;1045212;28;641;-66
2023/04/06 02:48:02;;;;;;;;;;;;;;;14.49;60.21;101324.72;1043882;28;657;-66
2023/04/06 02:48:52;;;;;;;;;;;;;;;14.48;60.74;101322.16;1045294;28;627;-66
2023/04/06 02:49:43;;;;;;;;;;;;;;;14.47;60.70;101326.66;1043717;28;1266;-66
2023/04/06 02:50:33;;;;;;;;;;;;;;;14.49;60.55;101323.88;1045042;28;1087;-66
2023/04/06 02:51:24;;;;;;;;;;;;;;;14.52;60.12;101323.63;1045679;28;772;-66
2023/04/06 02:52:14;;;;;;;;;;;;;;;14.48;60.71;101322.16;1044538;28;1980;-66
2023/04/06 02:53:05;;;;;;;;;;;;;;;14.46;60.80;101324.94;1044000;28;804;-67
2023/04/06 02:53:55;;;;;;;;;;;;;;;14.49;60.14;101318.50;1041635;28;731;-66
2023/04/06 02:54:46;;;;;;;;;;;;;;;14.48;60.71;101309.59;1045584;28;1046;-67
2023/04/06 02:55:36;;;;;;;;;;;;;;;14.53;60.19;101318.13;1045748;28;755;-66
2023/04/06 02:56:26;;;;;;;;;;;;;;;14.53;60.30;101315.47;1045688;28;666;-66
2023/04/06 02:57:17;;;;;;;;;;;;;;;14.49;60.07;101307.78;1039897;28;681;-66
2023/04/06 02:58:07;;;;;;;;;;;;;;;14.47;60.33;101307.03;1040590;28;642;-66
2023/04/06 02:58:58;;;;;;;;;;;;;;;14.46;60.28;101308.84;1040441;28;669;-66
2023/04/06 02:59:48;;;;;;;;;;;;;;;14.45;60.43;101306.28;1040647;28;1134;-66
2023/04/06 03:00:39;;;;;;;;;;;;;;;14.46;60.30;101305.31;1041406;28;685;-66
2023/04/06 03:01:29;;;;;;;;;;;;;;;14.45;60.70;101303.59;1041610;28;685;-66
2023/04/06 03:02:20;;;;;;;;;;;;;;;14.45;60.68;101312.50;1041707;28;693;-66
2023/04/06 03:03:10;;;;;;;;;;;;;;;14.45;60.59;101304.47;1041638;28;622;-66
2023/04/06 03:04:00;;;;;;;;;;;;;;;14.45;60.24;101304.47;1041855;28;743;-66
2023/04/06 03:04:51;;;;;;;;;;;;;;;14.41;60.70;101300.28;1041581;28;642;-67
2023/04/06 03:05:41;;;;;;;;;;;;;;;14.46;60.31;101305.31;1043466;28;709;-67
2023/04/06 03:06:32;;;;;;;;;;;;;;;14.44;60.65;101302.75;1043873;28;1338;-66
2023/04/06 03:07:22;;;;;;;;;;;;;;;14.44;60.41;101296.53;1044675;28;710;-67
2023/04/06 03:08:13;;;;;;;;;;;;;;;14.43;60.33;101302.84;1042080;28;1059;-66
2023/04/06 03:09:03;;;;;;;;;;;;;;;14.41;60.40;101300.28;1041277;28;778;-66
2023/04/06 03:09:54;;;;;;;;;;;;;;;14.44;60.21;101304.56;1041067;28;689;-66
2023/04/06 03:10:44;;;;;;;;;;;;;;;14.46;60.49;101294.59;1041460;28;1051;-66
2023/04/06 03:11:35;;;;;;;;;;;;;;;14.43;60.17;101297.50;1041541;28;615;-66
2023/04/06 03:12:25;;;;;;;;;;;;;;;14.44;60.54;101293.84;1041482;28;1969;-66
2023/04/06 03:13:16;;;;;;;;;;;;;;;14.46;60.30;101302.63;1040997;28;774;-66
2023/04/06 03:14:06;;;;;;;;;;;;;;;14.43;60.12;101300.19;1041183;28;681;-66
2023/04/06 03:14:57;;;;;;;;;;;;;;;14.43;60.03;101297.50;1041030;28;697;-67
2023/04/06 03:15:47;;;;;;;;;;;;;;;14.42;60.31;101304.69;1041441;28;1071;-66
2023/04/06 03:16:37;;;;;;;;;;;;;;;14.41;60.58;101297.59;1041032;28;660;-66
2023/04/06 03:17:28;;;;;;;;;;;;;;;14.42;60.70;101298.47;1044873;28;1090;-67
2023/04/06 03:18:18;;;;;;;;;;;;;;;14.43;60.17;101305.53;1045654;28;693;-66
2023/04/06 03:19:09;;;;;;;;;;;;;;;14.41;60.25;101300.28;1044224;28;1229;-67
2023/04/06 03:19:59;;;;;;;;;;;;;;;14.41;60.12;101299.44;1045934;28;742;-67
2023/04/06 03:20:50;;;;;;;;;;;;;;;14.43;60.53;101301.03;1040712;28;1362;-67
2023/04/06 03:21:41;;;;;;;;;;;;;;;14.42;60.29;101295.78;1043321;28;732;-66
2023/04/06 03:22:31;;;;;;;;;;;;;;;14.43;60.62;101302.84;1040488;28;1295;-66
2023/04/06 03:23:22;;;;;;;;;;;;;;;14.43;60.48;101300.19;1044142;28;714;-67
2023/04/06 03:24:13;;;;;;;;;;;;;;;14.43;60.05;101298.34;1042081;28;1008;-66
2023/04/06 03:25:04;;;;;;;;;;;;;;;14.43;60.57;101293.00;1044793;28;769;-66
2023/04/06 03:25:54;;;;;;;;;;;;;;;14.44;60.54;101293.84;1042084;28;1315;-66
2023/04/06 03:26:45;;;;;;;;;;;;;;;14.43;60.70;101292.13;1041580;28;673;-66
2023/04/06 03:27:35;;;;;;;;;;;;;;;14.43;60.53;101297.50;1040309;28;1213;-67
2023/04/06 03:28:26;;;;;;;;;;;;;;;14.45;60.18;101295.56;1040345;28;665;-67
2023/04/06 03:29:16;;;;;;;;;;;;;;;14.44;60.53;101293.84;1041818;28;1119;-66
2023/04/06 03:30:06;;;;;;;;;;;;;;;14.39;60.64;101285.25;1045451;28;641;-66
2023/04/06 03:30:57;;;;;;;;;;;;;;;14.39;60.66;101293.28;1045527;28;1082;-66
2023/04/06 03:31:47;;;;;;;;;;;;;;;14.38;60.51;101291.56;1042031;28;684;-66
2023/04/06 03:32:38;;;;;;;;;;;;;;;14.38;60.15;101288.88;1040293;28;1935;-66
2023/04/06 03:33:28;;;;;;;;;;;;;;;14.37;60.43;101285.34;1045145;28;708;-66
2023/04/06 03:34:19;;;;;;;;;;;;;;;14.36;60.82;101293.50;1045010;28;1277;-66
2023/04/06 03:35:10;;;;;;;;;;;;;;;14.34;60.62;101284.72;1043660;28;1430;-67
2023/04/06 03:36:00;;;;;;;;;;;;;;;14.30;60.37;101285.94;1043749;28;1161;-67
2023/04/06 03:36:51;;;;;;;;;;;;;;;14.31;60.56;101276.94;1045177;28;642;-67
2023/04/06 03:37:41;;;;;;;;;;;;;;;14.32;61.10;101282.19;1044398;28;686;-66
2023/04/06 03:38:31;;;;;;;;;;;;;;;14.31;60.86;101282.28;1040898;28;673;-66
2023/04/06 03:39:22;;;;;;;;;;;;;;;14.30;60.86;101276.06;1042501;28;667;-66
2023/04/06 03:40:12;;;;;;;;;;;;;;;14.32;60.77;101278.63;1040935;28;740;-66
2023/04/06 03:41:03;;;;;;;;;;;;;;;14.32;60.47;101275.97;1043655;28;968;-66
2023/04/06 03:41:53;;;;;;;;;;;;;;;14.31;60.94;101282.28;1045613;28;688;-66
2023/04/06 03:42:44;;;;;;;;;;;;;;;14.34;60.79;101276.66;1045467;28;742;-66
2023/04/06 03:43:34;;;;;;;;;;;;;;;14.36;61.09;101275.59;1041317;28;681;-67
2023/04/06 03:44:24;;;;;;;;;;;;;;;14.38;60.57;101279.03;1041467;28;693;-67
2023/04/06 03:45:15;;;;;;;;;;;;;;;14.36;60.88;101274.75;1044421;28;625;-67
2023/04/06 03:46:05;;;;;;;;;;;;;;;14.37;60.98;101271.09;1044022;28;654;-67
2023/04/06 03:46:56;;;;;;;;;;;;;;;14.34;60.45;101271.31;1040838;28;700;-67
2023/04/06 03:47:46;;;;;;;;;;;;;;;14.35;60.99;101271.19;1040897;28;685;-67
2023/04/06 03:48:37;;;;;;;;;;;;;;;14.35;60.42;101273.03;1041317;28;645;-67
2023/04/06 03:49:27;;;;;;;;;;;;;;;14.32;60.84;101270.59;1043062;28;1449;-66
2023/04/06 03:50:18;;;;;;;;;;;;;;;14.34;60.85;101265.94;1041822;28;1402;-67
2023/04/06 03:51:08;;;;;;;;;;;;;;;14.34;60.33;101263.28;1043853;28;1170;-67
2023/04/06 03:51:59;;;;;;;;;;;;;;;14.35;60.06;101267.66;1045682;28;697;-67
2023/04/06 03:52:49;;;;;;;;;;;;;;;14.33;60.95;101266.94;1045075;28;1147;-66
2023/04/06 03:53:40;;;;;;;;;;;;;;;14.33;60.90;101266.94;1045031;28;690;-67
2023/04/06 03:54:30;;;;;;;;;;;;;;;14.32;60.42;101268.78;1044833;28;613;-67
2023/04/06 03:55:20;;;;;;;;;;;;;;;14.31;60.43;101259.03;1043467;28;689;-66
2023/04/06 03:56:11;;;;;;;;;;;;;;;14.33;60.76;101262.41;1044898;28;661;-66
2023/04/06 03:57:01;;;;;;;;;;;;;;;14.32;60.83;101267.91;1043663;28;721;-66
2023/04/06 03:57:52;;;;;;;;;;;;;;;14.29;60.78;101260.94;1044063;28;685;-67
2023/04/06 03:58:44;;;;;;;;;;;;;;;14.29;60.72;101260.94;1044697;28;917;-66
2023/04/06 03:59:35;;;;;;;;;;;;;;;14.30;60.74;101267.16;1045483;28;673;-66
2023/04/06 04:00:25;;;;;;;;;;;;;;;14.31;60.44;101261.69;1045156;28;1149;-66
2023/04/06 04:01:16;;;;;;;;;;;;;;;14.30;60.94;101269.84;1045457;28;622;-67
2023/04/06 04:02:06;;;;;;;;;;;;;;;14.28;60.46;101264.59;1045282;28;622;-66
2023/04/06 04:02:57;;;;;;;;;;;;;;;14.31;60.87;101264.38;1043736;28;717;-66
2023/04/06 04:03:47;;;;;;;;;;;;;;;14.35;60.77;101262.31;1039670;28;1360;-66
2023/04/06 04:04:37;;;;;;;;;;;;;;;14.33;60.94;101266.94;1041235;28;1052;-66
2023/04/06 04:05:28;;;;;;;;;;;;;;;14.27;60.96;101264.72;1045550;28;625;-66
2023/04/06 04:06:19;;;;;;;;;;;;;;;14.29;61.03;101262.78;1039768;28;1231;-66
2023/04/06 04:07:09;;;;;;;;;;;;;;;14.27;60.69;101268.25;1044068;28;1398;-66
2023/04/06 04:08:00;;;;;;;;;;;;;;;14.29;60.68;101269.00;1043999;28;758;-66
2023/04/06 04:08:50;;;;;;;;;;;;;;;14.32;60.94;101268.78;1040785;28;940;-66
2023/04/06 04:09:40;;;;;;;;;;;;;;;14.32;60.98;101263.41;1041935;28;1134;-66
2023/04/06 04:10:31;;;;;;;;;;;;;;;14.31;60.88;101268.88;1044858;28;606;-66
2023/04/06 04:11:21;;;;;;;;;;;;;;;14.29;61.24;101270.81;1042954;28;689;-67
2023/04/06 04:12:12;;;;;;;;;;;;;;;14.30;61.13;101268.03;1043393;28;657;-66
2023/04/06 04:13:02;;;;;;;;;;;;;;;14.31;61.04;101274.25;1043301;28;915;-66
2023/04/06 04:13:53;;;;;;;;;;;;;;;14.31;60.92;101272.41;1042482;28;1106;-67
2023/04/06 04:14:43;;;;;;;;;;;;;;;14.31;60.67;101274.25;1044218;28;717;-67
2023/04/06 04:15:34;;;;;;;;;;;;;;;14.30;60.82;101265.34;1041813;28;1000;-67
2023/04/06 04:16:24;;;;;;;;;;;;;;;14.32;60.77;101265.22;1045048;28;685;-67
2023/04/06 04:17:15;;;;;;;;;;;;;;;14.35;60.58;101267.66;1045281;28;1169;-67
2023/04/06 04:18:05;;;;;;;;;;;;;;;14.33;61.29;101264.28;1044979;28;685;-67
2023/04/06 04:18:57;;;;;;;;;;;;;;;14.31;61.00;101272.41;1045194;28;1190;-67
2023/04/06 04:19:48;;;;;;;;;;;;;;;14.32;60.88;101267.91;1041383;28;622;-67
2023/04/06 04:20:38;;;;;;;;;;;;;;;14.32;61.09;101265.22;1040159;28;1202;-67
2023/04/06 04:21:29;;;;;;;;;;;;;;;14.28;61.03;101271.78;1044226;28;631;-67
2023/04/06 04:22:20;;;;;;;;;;;;;;;14.25;60.93;101268.34;1043525;28;1217;-67
2023/04/06 04:23:10;;;;;;;;;;;;;;;14.25;61.08;101263.00;1044837;28;689;-67
2023/04/06 04:24:01;;;;;;;;;;;;;;;14.24;61.02;101261.28;1044536;28;1278;-67
2023/04/06 04:24:51;;;;;;;;;;;;;;;14.27;60.99;101265.56;1044489;28;653;-67